AFL600 URSS-UDYZ
Flight info
| Callsign | AFL600 |
|---|---|
| Flight time | 0h 58m |
| Altitude | 35000 |
| Route | TABAN1D TABAN N166 OGMOS B143 IDLER M747 BARUS DCT OGEVI DCT LODAC |
| Aircraft | A321/M-SDE3FGHIRWY/LB1 |
Departure
| Time | 2026-05-05 11:47 |
|---|---|
| Airport | Sochi International Airport (URSS) |
Arrival
| Time | 2026-05-05 12:46 |
|---|---|
| Airport | Zvartnots International Airport (UDYZ) |
| Time | Latitude | Longitude | Altitude | Speed | Heading |
|---|---|---|---|---|---|
| 2026-05-05 11:19 | 43.44808 | 39.94381 | 67 ft | 0 kts | 333° |
| 2026-05-05 11:32 | 43.44795 | 39.94390 | 59 ft | 4 kts | 335° |
| 2026-05-05 11:32 | 43.44770 | 39.94405 | 60 ft | 4 kts | 338° |
| 2026-05-05 11:32 | 43.44745 | 39.94418 | 66 ft | 4 kts | 343° |
| 2026-05-05 11:33 | 43.44719 | 39.94426 | 58 ft | 4 kts | 0° |
| 2026-05-05 11:33 | 43.44697 | 39.94419 | 66 ft | 3 kts | 58° |
| 2026-05-05 11:33 | 43.44695 | 39.94415 | 66 ft | 0 kts | 65° |
| 2026-05-05 11:35 | 43.44708 | 39.94453 | 59 ft | 9 kts | 65° |
| 2026-05-05 11:35 | 43.44751 | 39.94577 | 68 ft | 19 kts | 64° |
| 2026-05-05 11:35 | 43.44806 | 39.94737 | 64 ft | 18 kts | 65° |
| 2026-05-05 11:36 | 43.44856 | 39.94886 | 70 ft | 16 kts | 64° |
| 2026-05-05 11:36 | 43.44901 | 39.95017 | 69 ft | 14 kts | 65° |
| 2026-05-05 11:36 | 43.44943 | 39.95130 | 66 ft | 12 kts | 63° |
| 2026-05-05 11:36 | 43.44976 | 39.95226 | 71 ft | 10 kts | 65° |
| 2026-05-05 11:37 | 43.45002 | 39.95302 | 74 ft | 8 kts | 65° |
| 2026-05-05 11:37 | 43.45039 | 39.95409 | 73 ft | 15 kts | 65° |
| 2026-05-05 11:37 | 43.45071 | 39.95493 | 66 ft | 15 kts | 52° |
| 2026-05-05 11:37 | 43.45160 | 39.95580 | 65 ft | 17 kts | 32° |
| 2026-05-05 11:38 | 43.45237 | 39.95667 | 63 ft | 0 kts | 65° |
| 2026-05-05 11:38 | 43.45248 | 39.95699 | 58 ft | 11 kts | 65° |
| 2026-05-05 11:38 | 43.45289 | 39.95866 | 54 ft | 24 kts | 102° |
| 2026-05-05 11:38 | 43.45193 | 39.95921 | 61 ft | 13 kts | 203° |
| 2026-05-05 11:39 | 43.45121 | 39.95874 | 62 ft | 14 kts | 209° |
| 2026-05-05 11:39 | 43.45081 | 39.95842 | 69 ft | 8 kts | 210° |
| 2026-05-05 11:39 | 43.45060 | 39.95820 | 72 ft | 0 kts | 231° |
| 2026-05-05 11:45 | 43.45047 | 39.95795 | 63 ft | 8 kts | 239° |
| 2026-05-05 11:45 | 43.45045 | 39.95789 | 73 ft | 0 kts | 239° |
| 2026-05-05 11:46 | 43.45005 | 39.95680 | 65 ft | 44 kts | 244° |
| 2026-05-05 11:46 | 43.44770 | 39.95001 | 69 ft | 110 kts | 245° |
| 2026-05-05 11:47 | 43.44370 | 39.93826 | 59 ft | 159 kts | 244° |
| 2026-05-05 11:47 | 43.43893 | 39.92459 | 671 ft | 153 kts | 245° |
| 2026-05-05 11:47 | 43.43565 | 39.91087 | 1292 ft | 153 kts | 256° |
| 2026-05-05 11:47 | 43.43312 | 39.89578 | 1602 ft | 172 kts | 258° |
| 2026-05-05 11:48 | 43.42740 | 39.85963 | 1969 ft | 217 kts | 258° |
| 2026-05-05 11:48 | 43.42393 | 39.83819 | 2265 ft | 242 kts | 258° |
| 2026-05-05 11:48 | 43.42009 | 39.81497 | 2880 ft | 253 kts | 257° |
| 2026-05-05 11:49 | 43.41607 | 39.79106 | 3629 ft | 259 kts | 257° |
| 2026-05-05 11:49 | 43.41198 | 39.76701 | 4409 ft | 264 kts | 258° |
| 2026-05-05 11:49 | 43.40773 | 39.74228 | 5206 ft | 267 kts | 258° |
| 2026-05-05 11:49 | 43.40341 | 39.71728 | 6012 ft | 270 kts | 258° |
| 2026-05-05 11:50 | 43.39905 | 39.69201 | 6770 ft | 274 kts | 258° |
| 2026-05-05 11:50 | 43.39399 | 39.66659 | 7514 ft | 278 kts | 248° |
| 2026-05-05 11:50 | 43.38344 | 39.64424 | 8248 ft | 282 kts | 225° |
| 2026-05-05 11:50 | 43.36744 | 39.62872 | 9001 ft | 284 kts | 203° |
| 2026-05-05 11:51 | 43.34827 | 39.62228 | 9769 ft | 286 kts | 184° |
| 2026-05-05 11:51 | 43.32854 | 39.62075 | 10337 ft | 295 kts | 183° |
| 2026-05-05 11:51 | 43.30722 | 39.61919 | 10499 ft | 318 kts | 182° |
| 2026-05-05 11:51 | 43.28447 | 39.61755 | 10774 ft | 334 kts | 182° |
| 2026-05-05 11:52 | 43.26100 | 39.61581 | 11370 ft | 340 kts | 182° |
| 2026-05-05 11:52 | 43.23729 | 39.61401 | 12061 ft | 343 kts | 182° |
| 2026-05-05 11:52 | 43.21336 | 39.61218 | 12752 ft | 345 kts | 182° |
| 2026-05-05 11:52 | 43.18930 | 39.61035 | 13499 ft | 347 kts | 182° |
| 2026-05-05 11:53 | 43.16540 | 39.60850 | 14142 ft | 350 kts | 182° |
| 2026-05-05 11:53 | 43.14096 | 39.60659 | 14734 ft | 354 kts | 182° |
| 2026-05-05 11:53 | 43.11628 | 39.60464 | 15342 ft | 356 kts | 182° |
| 2026-05-05 11:53 | 43.09143 | 39.60269 | 15948 ft | 359 kts | 182° |
| 2026-05-05 11:54 | 43.06644 | 39.59909 | 16530 ft | 363 kts | 188° |
| 2026-05-05 11:54 | 43.04141 | 39.59343 | 17122 ft | 366 kts | 188° |
| 2026-05-05 11:54 | 43.01617 | 39.58773 | 17728 ft | 369 kts | 188° |
| 2026-05-05 11:54 | 42.99073 | 39.58200 | 18304 ft | 372 kts | 188° |
| 2026-05-05 11:55 | 42.96507 | 39.57625 | 18804 ft | 375 kts | 188° |
| 2026-05-05 11:55 | 42.93959 | 39.57056 | 19310 ft | 377 kts | 188° |
| 2026-05-05 11:55 | 42.91362 | 39.56476 | 19835 ft | 379 kts | 188° |
| 2026-05-05 11:55 | 42.88751 | 39.55894 | 20348 ft | 381 kts | 188° |
| 2026-05-05 11:56 | 42.86128 | 39.55311 | 20852 ft | 383 kts | 188° |
| 2026-05-05 11:56 | 42.83489 | 39.54726 | 21356 ft | 385 kts | 188° |
| 2026-05-05 11:56 | 42.80843 | 39.54139 | 21892 ft | 386 kts | 188° |
| 2026-05-05 11:56 | 42.78184 | 39.53548 | 22416 ft | 388 kts | 188° |
| 2026-05-05 11:57 | 42.75554 | 39.52962 | 22915 ft | 389 kts | 188° |
| 2026-05-05 11:57 | 42.72876 | 39.52362 | 23425 ft | 391 kts | 188° |
| 2026-05-05 11:57 | 42.70185 | 39.51825 | 23844 ft | 392 kts | 182° |
| 2026-05-05 11:57 | 42.67470 | 39.52114 | 24210 ft | 394 kts | 166° |
| 2026-05-05 11:58 | 42.64929 | 39.53504 | 24551 ft | 398 kts | 149° |
| 2026-05-05 11:58 | 42.62794 | 39.55910 | 24896 ft | 404 kts | 133° |
| 2026-05-05 11:58 | 42.61273 | 39.59141 | 25240 ft | 412 kts | 115° |
| 2026-05-05 11:58 | 42.60375 | 39.62857 | 25576 ft | 417 kts | 109° |
| 2026-05-05 11:59 | 42.59556 | 39.66641 | 25939 ft | 419 kts | 110° |
| 2026-05-05 11:59 | 42.58747 | 39.70387 | 26262 ft | 421 kts | 109° |
| 2026-05-05 11:59 | 42.57921 | 39.74209 | 26588 ft | 422 kts | 109° |
| 2026-05-05 11:59 | 42.57086 | 39.78047 | 26887 ft | 426 kts | 109° |
| 2026-05-05 12:00 | 42.56242 | 39.81909 | 27211 ft | 428 kts | 109° |
| 2026-05-05 12:00 | 42.55390 | 39.85793 | 27539 ft | 431 kts | 110° |
| 2026-05-05 12:00 | 42.54529 | 39.89700 | 27861 ft | 434 kts | 110° |
| 2026-05-05 12:00 | 42.53665 | 39.93628 | 28172 ft | 436 kts | 110° |
| 2026-05-05 12:01 | 42.52807 | 39.97527 | 28445 ft | 439 kts | 110° |
| 2026-05-05 12:01 | 42.51929 | 40.01507 | 28722 ft | 442 kts | 110° |
| 2026-05-05 12:01 | 42.51043 | 40.05515 | 29016 ft | 445 kts | 110° |
| 2026-05-05 12:01 | 42.50149 | 40.09539 | 29308 ft | 447 kts | 110° |
| 2026-05-05 12:02 | 42.49250 | 40.13584 | 29607 ft | 450 kts | 110° |
| 2026-05-05 12:02 | 42.48359 | 40.17658 | 29881 ft | 452 kts | 110° |
| 2026-05-05 12:02 | 42.47507 | 40.21770 | 30140 ft | 455 kts | 109° |
| 2026-05-05 12:02 | 42.46682 | 40.25917 | 30394 ft | 456 kts | 108° |
| 2026-05-05 12:03 | 42.45869 | 40.30065 | 30716 ft | 456 kts | 109° |
| 2026-05-05 12:03 | 42.45064 | 40.34162 | 30995 ft | 456 kts | 109° |
| 2026-05-05 12:03 | 42.44240 | 40.38308 | 31314 ft | 456 kts | 109° |
| 2026-05-05 12:03 | 42.43405 | 40.42448 | 31663 ft | 455 kts | 109° |
| 2026-05-05 12:04 | 42.42564 | 40.46576 | 32000 ft | 455 kts | 109° |
| 2026-05-05 12:04 | 42.41719 | 40.50694 | 32343 ft | 454 kts | 109° |
| 2026-05-05 12:04 | 42.40870 | 40.54804 | 32686 ft | 453 kts | 109° |
| 2026-05-05 12:04 | 42.40020 | 40.58906 | 33023 ft | 453 kts | 109° |
| 2026-05-05 12:05 | 42.39170 | 40.63003 | 33349 ft | 452 kts | 109° |
| 2026-05-05 12:05 | 42.38333 | 40.67048 | 33636 ft | 452 kts | 109° |
| 2026-05-05 12:05 | 42.37486 | 40.71146 | 33939 ft | 453 kts | 109° |
| 2026-05-05 12:05 | 42.36639 | 40.75245 | 34201 ft | 452 kts | 109° |
| 2026-05-05 12:06 | 42.35791 | 40.79342 | 34452 ft | 452 kts | 109° |
| 2026-05-05 12:06 | 42.34942 | 40.83437 | 34692 ft | 452 kts | 109° |
| 2026-05-05 12:06 | 42.34090 | 40.87531 | 34906 ft | 453 kts | 109° |
| 2026-05-05 12:06 | 42.33234 | 40.91624 | 34974 ft | 451 kts | 109° |
| 2026-05-05 12:07 | 42.31535 | 40.99740 | 34979 ft | 448 kts | 109° |
| 2026-05-05 12:07 | 42.29851 | 41.07790 | 34983 ft | 448 kts | 109° |
| 2026-05-05 12:08 | 42.28147 | 41.15892 | 34979 ft | 448 kts | 109° |
| 2026-05-05 12:08 | 42.26430 | 41.23982 | 34975 ft | 448 kts | 109° |
| 2026-05-05 12:09 | 42.24709 | 41.32071 | 34976 ft | 448 kts | 109° |
| 2026-05-05 12:09 | 42.22992 | 41.40095 | 34970 ft | 448 kts | 109° |
| 2026-05-05 12:10 | 42.21260 | 41.48162 | 34971 ft | 448 kts | 109° |
| 2026-05-05 12:10 | 42.19526 | 41.56236 | 34978 ft | 448 kts | 109° |
| 2026-05-05 12:11 | 42.17794 | 41.64246 | 34955 ft | 448 kts | 109° |
| 2026-05-05 12:11 | 42.16046 | 41.72314 | 34966 ft | 449 kts | 109° |
| 2026-05-05 12:12 | 42.14266 | 41.80367 | 34958 ft | 449 kts | 110° |
| 2026-05-05 12:12 | 42.12448 | 41.88411 | 34963 ft | 449 kts | 110° |
| 2026-05-05 12:13 | 42.10640 | 41.96388 | 34954 ft | 448 kts | 110° |
| 2026-05-05 12:13 | 42.08816 | 42.04419 | 34941 ft | 449 kts | 110° |
| 2026-05-05 12:14 | 42.06989 | 42.12449 | 34943 ft | 449 kts | 110° |
| 2026-05-05 12:14 | 42.05156 | 42.20486 | 34932 ft | 449 kts | 110° |
| 2026-05-05 12:15 | 42.03317 | 42.28519 | 34934 ft | 449 kts | 110° |
| 2026-05-05 12:15 | 42.01486 | 42.36494 | 34918 ft | 449 kts | 110° |
| 2026-05-05 12:16 | 41.99629 | 42.44515 | 34916 ft | 450 kts | 110° |
| 2026-05-05 12:16 | 41.97776 | 42.52544 | 34923 ft | 450 kts | 110° |
| 2026-05-05 12:17 | 41.95917 | 42.60559 | 34924 ft | 449 kts | 111° |
| 2026-05-05 12:17 | 41.94059 | 42.68510 | 34911 ft | 449 kts | 111° |
| 2026-05-05 12:18 | 41.92177 | 42.76520 | 34911 ft | 450 kts | 111° |
| 2026-05-05 12:18 | 41.89652 | 42.84092 | 34907 ft | 442 kts | 127° |
| 2026-05-05 12:19 | 41.85634 | 42.90126 | 34916 ft | 435 kts | 141° |
| 2026-05-05 12:19 | 41.81193 | 42.95631 | 34910 ft | 434 kts | 141° |
| 2026-05-05 12:20 | 41.76761 | 43.01136 | 34919 ft | 434 kts | 141° |
| 2026-05-05 12:20 | 41.72342 | 43.06635 | 34911 ft | 433 kts | 141° |
| 2026-05-05 12:21 | 41.67953 | 43.12082 | 34899 ft | 433 kts | 141° |
| 2026-05-05 12:21 | 41.63534 | 43.17536 | 34910 ft | 432 kts | 141° |
| 2026-05-05 12:22 | 41.59100 | 43.23002 | 34904 ft | 433 kts | 141° |
| 2026-05-05 12:22 | 41.54692 | 43.28454 | 34880 ft | 430 kts | 141° |
| 2026-05-05 12:23 | 41.50297 | 43.33843 | 34740 ft | 434 kts | 141° |
| 2026-05-05 12:23 | 41.48068 | 43.36566 | 34503 ft | 435 kts | 141° |
| 2026-05-05 12:23 | 41.45841 | 43.39289 | 33726 ft | 436 kts | 138° |
| 2026-05-05 12:24 | 41.43592 | 43.42042 | 33486 ft | 440 kts | 141° |
| 2026-05-05 12:24 | 41.41344 | 43.44792 | 33234 ft | 440 kts | 141° |
| 2026-05-05 12:24 | 41.39094 | 43.47540 | 32984 ft | 438 kts | 141° |
| 2026-05-05 12:24 | 41.36853 | 43.50277 | 32736 ft | 436 kts | 141° |
| 2026-05-05 12:25 | 41.34624 | 43.53001 | 32490 ft | 434 kts | 141° |
| 2026-05-05 12:25 | 41.32435 | 43.55677 | 32235 ft | 432 kts | 141° |
| 2026-05-05 12:25 | 41.30222 | 43.58373 | 31985 ft | 430 kts | 141° |
| 2026-05-05 12:25 | 41.28021 | 43.61052 | 31735 ft | 428 kts | 141° |
| 2026-05-05 12:26 | 41.25829 | 43.63722 | 31484 ft | 426 kts | 141° |
| 2026-05-05 12:26 | 41.23656 | 43.66371 | 31024 ft | 422 kts | 141° |
| 2026-05-05 12:26 | 41.21496 | 43.68992 | 30498 ft | 419 kts | 141° |
| 2026-05-05 12:26 | 41.19348 | 43.71591 | 29979 ft | 417 kts | 141° |
| 2026-05-05 12:27 | 41.17196 | 43.74146 | 29456 ft | 412 kts | 145° |
| 2026-05-05 12:27 | 41.14859 | 43.76178 | 28951 ft | 404 kts | 156° |
| 2026-05-05 12:27 | 41.12278 | 43.77541 | 28431 ft | 397 kts | 167° |
| 2026-05-05 12:27 | 41.09596 | 43.78200 | 27935 ft | 390 kts | 178° |
| 2026-05-05 12:28 | 41.06903 | 43.78187 | 27447 ft | 384 kts | 185° |
| 2026-05-05 12:28 | 41.04245 | 43.77969 | 26974 ft | 381 kts | 185° |
| 2026-05-05 12:28 | 41.01612 | 43.77760 | 26506 ft | 377 kts | 185° |
| 2026-05-05 12:28 | 40.99007 | 43.77562 | 26049 ft | 374 kts | 185° |
| 2026-05-05 12:29 | 40.96455 | 43.77368 | 25612 ft | 370 kts | 185° |
| 2026-05-05 12:29 | 40.93899 | 43.77176 | 25174 ft | 366 kts | 185° |
| 2026-05-05 12:29 | 40.91369 | 43.76987 | 24748 ft | 362 kts | 185° |
| 2026-05-05 12:29 | 40.88868 | 43.76799 | 24312 ft | 358 kts | 185° |
| 2026-05-05 12:30 | 40.86391 | 43.76609 | 23903 ft | 355 kts | 185° |
| 2026-05-05 12:30 | 40.83936 | 43.76421 | 23484 ft | 352 kts | 185° |
| 2026-05-05 12:30 | 40.81502 | 43.76234 | 23062 ft | 349 kts | 185° |
| 2026-05-05 12:30 | 40.79093 | 43.76046 | 22643 ft | 346 kts | 185° |
| 2026-05-05 12:31 | 40.76703 | 43.75863 | 22220 ft | 343 kts | 185° |
| 2026-05-05 12:31 | 40.74360 | 43.75683 | 21807 ft | 340 kts | 185° |
| 2026-05-05 12:31 | 40.72005 | 43.75501 | 21392 ft | 338 kts | 185° |
| 2026-05-05 12:31 | 40.69665 | 43.75320 | 20972 ft | 335 kts | 185° |
| 2026-05-05 12:32 | 40.67343 | 43.75139 | 20553 ft | 333 kts | 185° |
| 2026-05-05 12:32 | 40.65038 | 43.74961 | 20132 ft | 331 kts | 185° |
| 2026-05-05 12:32 | 40.62746 | 43.74785 | 19713 ft | 329 kts | 185° |
| 2026-05-05 12:32 | 40.60470 | 43.74612 | 19301 ft | 326 kts | 185° |
| 2026-05-05 12:33 | 40.58211 | 43.74441 | 18892 ft | 324 kts | 185° |
| 2026-05-05 12:33 | 40.55967 | 43.74275 | 18484 ft | 324 kts | 184° |
| 2026-05-05 12:33 | 40.53752 | 43.74118 | 18087 ft | 322 kts | 184° |
| 2026-05-05 12:33 | 40.51526 | 43.73945 | 17679 ft | 321 kts | 185° |
| 2026-05-05 12:34 | 40.49300 | 43.73772 | 17278 ft | 320 kts | 185° |
| 2026-05-05 12:34 | 40.47089 | 43.73597 | 16891 ft | 315 kts | 185° |
| 2026-05-05 12:34 | 40.44907 | 43.73427 | 16492 ft | 314 kts | 185° |
| 2026-05-05 12:34 | 40.42741 | 43.73264 | 16214 ft | 308 kts | 185° |
| 2026-05-05 12:35 | 40.40597 | 43.73100 | 16118 ft | 309 kts | 184° |
| 2026-05-05 12:35 | 40.38451 | 43.73014 | 15979 ft | 309 kts | 177° |
| 2026-05-05 12:35 | 40.36328 | 43.73354 | 15475 ft | 315 kts | 173° |
| 2026-05-05 12:35 | 40.34182 | 43.73774 | 15045 ft | 310 kts | 172° |
| 2026-05-05 12:36 | 40.32043 | 43.74202 | 14501 ft | 308 kts | 172° |
| 2026-05-05 12:36 | 40.29934 | 43.74622 | 13908 ft | 307 kts | 172° |
| 2026-05-05 12:36 | 40.27839 | 43.75032 | 13414 ft | 302 kts | 172° |
| 2026-05-05 12:36 | 40.25755 | 43.75439 | 12899 ft | 301 kts | 172° |
| 2026-05-05 12:37 | 40.23698 | 43.75839 | 12376 ft | 297 kts | 172° |
| 2026-05-05 12:37 | 40.21666 | 43.76235 | 11883 ft | 295 kts | 172° |
| 2026-05-05 12:37 | 40.19827 | 43.76591 | 11677 ft | 283 kts | 171° |
| 2026-05-05 12:37 | 40.19279 | 43.76720 | 11594 ft | 280 kts | 166° |
| 2026-05-05 12:38 | 40.17537 | 43.77725 | 11332 ft | 272 kts | 144° |
| 2026-05-05 12:38 | 40.16261 | 43.79502 | 11082 ft | 270 kts | 120° |
| 2026-05-05 12:38 | 40.15656 | 43.81812 | 10830 ft | 271 kts | 96° |
| 2026-05-05 12:38 | 40.15538 | 43.84275 | 10579 ft | 271 kts | 94° |
| 2026-05-05 12:39 | 40.15438 | 43.86740 | 10322 ft | 272 kts | 94° |
| 2026-05-05 12:39 | 40.15337 | 43.89204 | 9967 ft | 272 kts | 94° |
| 2026-05-05 12:39 | 40.15230 | 43.91672 | 9591 ft | 272 kts | 94° |
| 2026-05-05 12:39 | 40.15119 | 43.94143 | 9223 ft | 272 kts | 94° |
| 2026-05-05 12:40 | 40.15009 | 43.96575 | 8856 ft | 273 kts | 94° |
| 2026-05-05 12:40 | 40.14896 | 43.99048 | 8521 ft | 270 kts | 94° |
| 2026-05-05 12:40 | 40.14787 | 44.01469 | 8112 ft | 263 kts | 94° |
| 2026-05-05 12:40 | 40.14686 | 44.03773 | 7781 ft | 245 kts | 94° |
| 2026-05-05 12:41 | 40.14626 | 44.05958 | 7453 ft | 239 kts | 92° |
| 2026-05-05 12:41 | 40.14596 | 44.08102 | 7137 ft | 234 kts | 91° |
| 2026-05-05 12:41 | 40.14572 | 44.10220 | 6843 ft | 233 kts | 92° |
| 2026-05-05 12:41 | 40.14551 | 44.12310 | 6521 ft | 227 kts | 91° |
| 2026-05-05 12:42 | 40.14558 | 44.14326 | 6222 ft | 223 kts | 90° |
| 2026-05-05 12:42 | 40.14573 | 44.16347 | 5926 ft | 222 kts | 90° |
| 2026-05-05 12:42 | 40.14588 | 44.18354 | 5634 ft | 220 kts | 90° |
| 2026-05-05 12:42 | 40.14603 | 44.20324 | 5341 ft | 209 kts | 90° |
| 2026-05-05 12:43 | 40.14617 | 44.22182 | 5071 ft | 201 kts | 90° |
| 2026-05-05 12:43 | 40.14629 | 44.23981 | 4807 ft | 193 kts | 90° |
| 2026-05-05 12:43 | 40.14641 | 44.25674 | 4565 ft | 179 kts | 89° |
| 2026-05-05 12:43 | 40.14651 | 44.27217 | 4341 ft | 163 kts | 89° |
| 2026-05-05 12:44 | 40.14660 | 44.28669 | 4123 ft | 157 kts | 89° |
| 2026-05-05 12:44 | 40.14670 | 44.30087 | 3918 ft | 155 kts | 89° |
| 2026-05-05 12:44 | 40.14678 | 44.31470 | 3718 ft | 154 kts | 88° |
| 2026-05-05 12:44 | 40.14686 | 44.32867 | 3502 ft | 153 kts | 88° |
| 2026-05-05 12:45 | 40.14695 | 44.34257 | 3300 ft | 152 kts | 88° |
| 2026-05-05 12:45 | 40.14704 | 44.35643 | 3115 ft | 152 kts | 88° |
| 2026-05-05 12:45 | 40.14714 | 44.37026 | 2925 ft | 152 kts | 88° |
| 2026-05-05 12:45 | 40.14723 | 44.38372 | 2831 ft | 138 kts | 89° |
| 2026-05-05 12:46 | 40.14731 | 44.39398 | 2830 ft | 85 kts | 89° |
| 2026-05-05 12:46 | 40.14737 | 44.39930 | 2836 ft | 28 kts | 87° |
| 2026-05-05 12:46 | 40.14828 | 44.40031 | 2837 ft | 14 kts | 3° |
| 2026-05-05 12:46 | 40.14916 | 44.40034 | 2837 ft | 12 kts | 360° |
| 2026-05-05 12:47 | 40.14968 | 44.40021 | 2836 ft | 8 kts | 340° |
| 2026-05-05 12:47 | 40.15034 | 44.40005 | 2836 ft | 9 kts | 358° |
| 2026-05-05 12:47 | 40.15086 | 44.40004 | 2836 ft | 6 kts | 0° |
| 2026-05-05 12:47 | 40.15094 | 44.40004 | 2838 ft | 0 kts | 0° |